Time;durP1;ratioP1;P1;durP2;ratioP2;P2;SDS_P1;SDS_P2;PMS_P1;PMS_P2;Temp;Humidity;BMP_temperature;BMP_pressure;BME280_temperature;BME280_humidity;BME280_pressure;Samples;Min_cycle;Max_cycle;Signal;HPM_P1;HPM_P2
2021/09/07 00:00:18;;;;;;;41.73;30.83;;;;;;;14.18;79.88;102506.38;4999915;28;20211;-82
2021/09/07 00:02:44;;;;;;;26.10;21.27;;;;;;;14.22;79.62;102514.25;4988117;28;20195;-82
2021/09/07 00:05:11;;;;;;;29.10;22.60;;;;;;;14.16;80.52;102520.88;5013991;28;20211;-82
2021/09/07 00:07:37;;;;;;;27.90;22.30;;;;;;;14.17;80.39;102520.94;5017634;28;20225;-82
2021/09/07 00:10:04;;;;;;;29.47;23.27;;;;;;;14.18;80.55;102519.25;5017495;28;20243;-81
2021/09/07 00:12:30;;;;;;;30.80;24.23;;;;;;;14.16;80.50;102513.16;5015869;28;20275;-81
2021/09/07 00:14:56;;;;;;;31.80;24.80;;;;;;;14.18;80.49;102519.25;5016005;28;20184;-81
2021/09/07 00:17:22;;;;;;;29.07;22.07;;;;;;;14.17;80.68;102508.06;5015410;28;20212;-81
2021/09/07 00:19:48;;;;;;;30.37;24.67;;;;;;;14.20;80.19;102517.59;5015264;28;20574;-82
2021/09/07 00:22:13;;;;;;;31.50;24.43;;;;;;;14.21;80.59;102506.47;5015161;28;20219;-81
2021/09/07 00:24:38;;;;;;;31.80;24.50;;;;;;;14.26;80.28;102510.06;5015433;28;20748;-82
2021/09/07 00:27:04;;;;;;;32.00;25.13;;;;;;;14.27;80.75;102510.13;5015321;28;20221;-82
2021/09/07 00:29:30;;;;;;;29.17;23.53;;;;;;;14.24;80.67;102514.31;5015346;28;20179;-80
2021/09/07 00:31:55;;;;;;;34.63;25.73;;;;;;;14.24;81.00;102514.31;5014959;28;20211;-80
2021/09/07 00:34:23;;;;;;;32.63;25.27;;;;;;;14.24;80.85;102514.31;5017543;28;20532;-81
2021/09/07 00:36:48;;;;;;;34.67;26.80;;;;;;;14.22;81.52;102514.25;5016147;28;20197;-83
2021/09/07 00:39:14;;;;;;;36.53;27.43;;;;;;;14.28;81.60;102513.59;5015547;28;20560;-80
2021/09/07 00:41:40;;;;;;;39.17;29.33;;;;;;;14.31;81.82;102509.41;5016094;28;20270;-81
2021/09/07 00:44:16;;;;;;;38.73;29.17;;;;;;;14.33;81.75;102515.50;5016437;28;20176;-81
2021/09/07 00:46:47;;;;;;;42.90;31.63;;;;;;;14.33;81.97;102518.06;5014997;28;20226;-81
2021/09/07 00:49:12;;;;;;;40.57;31.73;;;;;;;14.33;82.02;102517.19;5014990;28;20198;-83
2021/09/07 00:51:38;;;;;;;43.10;31.90;;;;;;;14.35;82.07;102512.94;5015492;28;20207;-82
2021/09/07 00:54:03;;;;;;;92.13;66.13;;;;;;;14.40;81.93;102511.38;5017026;28;20191;-80
2021/09/07 00:56:32;;;;;;;43.20;34.70;;;;;;;14.43;81.47;102509.78;5013468;28;20239;-81
2021/09/07 00:58:58;;;;;;;46.00;35.27;;;;;;;14.45;82.12;102504.69;5015218;28;20194;-81
2021/09/07 01:01:23;;;;;;;55.03;40.27;;;;;;;14.47;81.67;102506.47;5018146;28;20208;-83
2021/09/07 01:03:50;;;;;;;45.40;33.17;;;;;;;14.48;82.80;102502.19;5008584;28;20635;-84
2021/09/07 01:06:15;;;;;;;42.10;31.63;;;;;;;14.52;82.16;102511.75;5020293;28;20183;-83
2021/09/07 01:08:43;;;;;;;41.67;30.93;;;;;;;14.48;81.75;102503.06;5015749;28;20215;-80
2021/09/07 01:11:09;;;;;;;45.93;30.90;;;;;;;14.48;81.74;102495.31;5017377;28;20261;-82
2021/09/07 01:13:35;;;;;;;39.57;30.43;;;;;;;14.46;81.37;102503.84;5016238;28;20653;-82
2021/09/07 01:16:01;;;;;;;40.43;30.03;;;;;;;14.45;81.54;102502.09;5015668;28;20245;-83
2021/09/07 01:18:28;;;;;;;38.60;31.40;;;;;;;14.46;81.54;102502.13;5017385;28;20331;-79
2021/09/07 01:20:53;;;;;;;38.37;29.70;;;;;;;14.46;81.91;102498.69;5013590;22;20323;-78
2021/09/07 01:23:18;;;;;;;37.77;28.87;;;;;;;14.42;82.02;102499.41;4989448;28;20196;-79
2021/09/07 01:25:43;;;;;;;38.73;29.60;;;;;;;14.42;81.82;102490.00;4989891;28;20176;-79
2021/09/07 01:28:13;;;;;;;36.23;28.27;;;;;;;14.46;81.40;102490.97;4989791;28;20270;-81
2021/09/07 01:30:41;;;;;;;138.30;106.67;;;;;;;14.48;82.04;102482.44;4990031;28;20207;-78
2021/09/07 01:33:09;;;;;;;49.10;37.77;;;;;;;14.48;81.29;102492.75;4991464;28;20181;-79
2021/09/07 01:35:34;;;;;;;60.73;46.10;;;;;;;14.40;81.62;102488.16;4990174;28;20195;-80
2021/09/07 01:37:59;;;;;;;41.10;30.80;;;;;;;14.39;81.75;102487.31;4973276;28;20180;-78
2021/09/07 01:40:25;;;;;;;40.17;31.50;;;;;;;14.42;81.62;102490.00;4991440;28;20274;-79
2021/09/07 01:42:50;;;;;;;36.53;27.83;;;;;;;14.35;81.50;102493.19;4974340;28;20249;-80
2021/09/07 01:45:15;;;;;;;36.70;28.37;;;;;;;14.35;81.54;102494.88;4990575;28;20278;-79
2021/09/07 01:47:41;;;;;;;38.00;27.90;;;;;;;14.34;80.34;102488.88;4989991;28;20335;-80
2021/09/07 01:50:08;;;;;;;34.03;26.43;;;;;;;14.27;80.71;102504.97;4989605;28;20215;-83
2021/09/07 01:52:33;;;;;;;39.53;30.40;;;;;;;14.19;80.88;102496.13;4991024;28;20572;-80
2021/09/07 01:54:59;;;;;;;41.93;31.00;;;;;;;14.08;80.65;102497.47;4991422;28;20175;-79
2021/09/07 01:57:24;;;;;;;101.80;83.40;;;;;;;14.11;80.57;102500.16;4981504;28;20192;-78
2021/09/07 01:59:50;;;;;;;43.00;31.07;;;;;;;14.15;80.23;102503.69;4990790;28;20687;-79
2021/09/07 02:02:16;;;;;;;45.63;34.93;;;;;;;14.15;80.26;102499.41;4992236;28;20187;-78
2021/09/07 02:04:45;;;;;;;42.70;32.27;;;;;;;14.12;80.20;102503.56;4992678;28;20688;-79
2021/09/07 02:07:11;;;;;;;42.53;32.33;;;;;;;14.08;80.60;102505.19;4991957;28;20216;-81
2021/09/07 02:09:37;;;;;;;40.97;30.73;;;;;;;14.04;80.93;102507.63;4992367;28;20194;-78
2021/09/07 02:12:06;;;;;;;44.10;32.10;;;;;;;14.03;80.28;102500.72;4993184;28;20180;-80
2021/09/07 02:14:32;;;;;;;44.03;30.43;;;;;;;13.92;80.55;102505.53;4990973;28;20564;-79
2021/09/07 02:16:58;;;;;;;38.63;29.07;;;;;;;13.93;80.30;102512.44;4992316;28;20183;-80
2021/09/07 02:19:24;;;;;;;42.93;30.20;;;;;;;13.91;80.37;102505.47;4992724;28;20751;-80
2021/09/07 02:21:49;;;;;;;40.17;29.97;;;;;;;13.92;79.50;102510.69;4992149;28;20212;-79
2021/09/07 02:24:15;;;;;;;45.23;31.57;;;;;;;13.88;80.13;102502.78;4990572;28;20191;-80
2021/09/07 02:26:42;;;;;;;41.37;30.40;;;;;;;13.77;80.07;102502.44;4990973;28;20874;-79
2021/09/07 02:29:08;;;;;;;40.90;29.87;;;;;;;13.71;80.38;102511.69;4991835;28;20688;-79
2021/09/07 02:31:34;;;;;;;38.47;29.47;;;;;;;13.68;79.74;102504.72;4991415;28;20296;-80
2021/09/07 02:34:00;;;;;;;39.10;29.67;;;;;;;13.63;80.01;102505.41;4976074;28;20188;-78
2021/09/07 02:36:26;;;;;;;38.90;28.83;;;;;;;13.60;79.61;102507.84;4991265;28;20206;-79
2021/09/07 02:38:54;;;;;;;38.33;28.53;;;;;;;13.48;80.35;102503.16;4991888;28;20188;-79
2021/09/07 02:41:20;;;;;;;39.33;29.20;;;;;;;13.47;80.40;102500.53;4975641;28;20204;-80
2021/09/07 02:43:46;;;;;;;38.23;27.47;;;;;;;13.41;79.97;102498.66;4975059;28;20287;-79
2021/09/07 02:46:12;;;;;;;38.77;27.53;;;;;;;13.37;79.65;102501.06;4991405;28;20262;-80
2021/09/07 02:48:38;;;;;;;37.03;27.17;;;;;;;13.35;79.17;102502.72;4990818;28;20208;-82
2021/09/07 02:51:03;;;;;;;37.70;27.97;;;;;;;13.38;79.69;102505.38;4975405;28;20227;-80
2021/09/07 02:53:31;;;;;;;37.00;27.67;;;;;;;13.29;79.60;102499.91;4990668;28;20188;-81
2021/09/07 02:55:59;;;;;;;35.53;27.17;;;;;;;13.26;79.55;102497.25;4969499;28;20247;-80
2021/09/07 02:58:24;;;;;;;38.60;28.53;;;;;;;13.26;79.69;102502.38;4971829;28;20578;-79
2021/09/07 03:00:50;;;;;;;38.83;28.17;;;;;;;13.19;79.88;102513.25;4972400;28;20211;-80
2021/09/07 03:03:16;;;;;;;37.60;26.27;;;;;;;13.19;79.75;102488.44;4976957;28;20271;-79
2021/09/07 03:05:42;;;;;;;38.17;28.07;;;;;;;13.06;80.57;102490.50;4991065;28;20181;-79
2021/09/07 03:08:08;;;;;;;37.83;28.63;;;;;;;13.11;79.90;102499.28;4988577;28;20251;-81
2021/09/07 03:10:34;;;;;;;40.90;28.10;;;;;;;13.09;80.13;102499.22;4988480;28;20596;-79
2021/09/07 03:12:59;;;;;;;38.90;28.77;;;;;;;12.99;80.27;102497.16;4993317;28;20184;-79
2021/09/07 03:15:26;;;;;;;37.70;27.97;;;;;;;13.01;79.60;102503.22;4994703;28;20211;-80
2021/09/07 03:17:51;;;;;;;37.50;26.57;;;;;;;13.01;79.38;102494.59;4994649;28;20168;-79
2021/09/07 03:20:17;;;;;;;40.57;28.17;;;;;;;13.02;79.64;102494.66;4992636;28;21007;-78
2021/09/07 03:22:43;;;;;;;40.33;29.40;;;;;;;13.03;81.07;102493.84;4994226;28;20646;-77
2021/09/07 03:25:10;;;;;;;42.30;29.57;;;;;;;12.98;81.00;102495.38;4992945;28;20188;-78
2021/09/07 03:27:35;;;;;;;46.50;29.77;;;;;;;12.92;81.82;102500.25;4994178;28;20358;-79
2021/09/07 03:30:02;;;;;;;38.70;28.20;;;;;;;12.91;81.65;102494.22;4988639;28;20204;-79
2021/09/07 03:32:29;;;;;;;45.27;29.47;;;;;;;12.88;81.33;102494.97;4993542;28;20190;-80
2021/09/07 03:34:55;;;;;;;83.40;40.37;;;;;;;12.93;82.07;102494.28;4968139;28;20615;-78
2021/09/07 03:37:20;;;;;;;71.77;36.97;;;;;;;12.93;82.08;102503.72;4957040;28;20212;-80
2021/09/07 03:39:46;;;;;;;81.20;38.97;;;;;;;12.95;81.69;102505.53;4988893;28;20657;-80
2021/09/07 03:42:12;;;;;;;98.13;44.57;;;;;;;12.91;83.46;102498.53;4992064;28;20188;-79
2021/09/07 03:44:38;;;;;;;100.70;43.60;;;;;;;12.86;82.99;102506.03;4976577;28;20220;-78
2021/09/07 03:47:04;;;;;;;106.17;48.47;;;;;;;12.76;83.92;102498.81;4990649;28;20237;-80
2021/09/07 03:49:30;;;;;;;103.17;46.50;;;;;;;12.79;83.67;102508.34;4991805;28;20248;-78
2021/09/07 03:51:55;;;;;;;95.80;46.33;;;;;;;12.82;83.58;102509.31;4976236;28;20244;-79
2021/09/07 03:54:21;;;;;;;89.33;43.80;;;;;;;12.80;83.47;102507.50;4971456;28;20561;-79
2021/09/07 03:56:48;;;;;;;108.40;48.80;;;;;;;12.75;85.08;102507.38;4992687;28;20182;-78
2021/09/07 03:59:13;;;;;;;102.47;46.63;;;;;;;12.77;84.07;102512.56;4988951;28;20169;-78
2021/09/07 04:01:41;;;;;;;108.43;47.70;;;;;;;12.74;85.28;102508.19;4974893;28;20613;-80
2021/09/07 04:04:10;;;;;;;105.37;50.43;;;;;;;12.75;86.81;102514.19;4957229;28;20219;-79
2021/09/07 04:06:35;;;;;;;98.77;46.87;;;;;;;12.73;85.89;102505.56;4973786;28;20283;-80
2021/09/07 04:09:01;;;;;;;68.00;42.57;;;;;;;12.69;85.23;102512.28;4956997;28;20279;-79
2021/09/07 04:11:26;;;;;;;60.00;40.70;;;;;;;12.69;84.48;102517.44;4978193;28;20759;-78
2021/09/07 04:13:52;;;;;;;64.33;39.77;;;;;;;12.73;84.43;102523.56;4992188;28;20178;-79
2021/09/07 04:16:17;;;;;;;78.63;43.40;;;;;;;12.75;84.95;102520.22;4994057;28;20528;-78
2021/09/07 04:18:43;;;;;;;72.97;44.20;;;;;;;12.76;85.61;102524.53;4975225;28;20187;-79
2021/09/07 04:21:11;;;;;;;82.80;45.17;;;;;;;12.77;85.41;102522.84;4991874;28;20274;-79
2021/09/07 04:23:37;;;;;;;76.07;42.80;;;;;;;12.75;85.53;102525.34;4985005;28;20628;-80
2021/09/07 04:26:02;;;;;;;81.03;41.33;;;;;;;12.70;85.84;102531.13;4990735;28;20188;-80
2021/09/07 04:28:28;;;;;;;93.00;40.93;;;;;;;12.66;85.98;102525.00;4990861;28;20272;-80
2021/09/07 04:30:53;;;;;;;72.57;39.70;;;;;;;12.71;86.14;102526.06;4991947;28;20258;-79
2021/09/07 04:33:18;;;;;;;86.30;42.63;;;;;;;12.70;86.24;102533.69;4992460;28;20184;-79
2021/09/07 04:35:44;;;;;;;104.97;46.30;;;;;;;12.73;87.59;102526.13;4975364;28;20203;-80
2021/09/07 04:38:09;;;;;;;123.10;48.57;;;;;;;12.68;88.58;102523.34;4975784;28;20203;-79
2021/09/07 04:40:36;;;;;;;97.47;47.10;;;;;;;12.64;88.94;102529.22;4992005;28;20212;-79
2021/09/07 04:43:01;;;;;;;84.13;46.67;;;;;;;12.64;88.85;102529.22;4978936;28;20189;-79
2021/09/07 04:45:26;;;;;;;76.33;45.00;;;;;;;12.66;88.33;102534.41;4983981;28;20184;-79
2021/09/07 04:47:52;;;;;;;92.13;49.73;;;;;;;12.63;89.51;102544.59;4963004;28;20235;-80
2021/09/07 04:50:17;;;;;;;87.47;49.37;;;;;;;12.61;89.24;102543.63;4984837;28;20273;-78
2021/09/07 04:52:43;;;;;;;133.07;50.23;;;;;;;12.59;89.62;102538.44;4991581;28;20211;-79
2021/09/07 04:55:08;;;;;;;84.77;42.20;;;;;;;12.59;89.41;102542.72;4992655;28;20310;-79
2021/09/07 04:57:34;;;;;;;92.30;43.50;;;;;;;12.55;88.86;102544.28;4982586;28;20235;-79
2021/09/07 04:59:59;;;;;;;129.90;45.73;;;;;;;12.60;88.78;102544.47;4965489;28;20216;-79
2021/09/07 05:02:24;;;;;;;88.07;41.17;;;;;;;12.63;88.23;102547.16;4970759;28;20272;-79
2021/09/07 05:04:50;;;;;;;102.63;44.93;;;;;;;12.63;88.29;102548.00;4989590;28;20184;-78
2021/09/07 05:07:15;;;;;;;69.47;42.53;;;;;;;12.69;88.21;102547.38;4983485;28;20258;-79
2021/09/07 05:09:40;;;;;;;58.77;39.77;;;;;;;12.71;87.74;102549.19;4991569;28;20192;-79
2021/09/07 05:12:06;;;;;;;54.20;37.67;;;;;;;12.76;86.76;102545.09;4988383;28;20275;-77
2021/09/07 05:14:31;;;;;;;53.20;36.77;;;;;;;12.83;86.67;102543.63;4991921;28;20184;-79
2021/09/07 05:16:57;;;;;;;48.70;34.53;;;;;;;12.89;86.29;102543.84;4991804;28;20192;-78
2021/09/07 05:19:22;;;;;;;50.50;32.77;;;;;;;12.91;85.86;102537.94;4991001;28;20199;-79
2021/09/07 05:21:47;;;;;;;69.90;35.00;;;;;;;12.93;87.26;102544.03;4992722;28;20220;-82
2021/09/07 05:24:13;;;;;;;68.23;34.17;;;;;;;12.93;86.94;102540.59;4992230;28;20218;-81
2021/09/07 05:26:38;;;;;;;70.87;34.43;;;;;;;12.98;86.94;102546.78;4992679;28;20180;-80
2021/09/07 05:29:03;;;;;;;42.57;32.53;;;;;;;13.04;86.88;102552.19;4993188;28;20194;-79
2021/09/07 05:31:29;;;;;;;37.87;30.93;;;;;;;13.05;86.31;102546.22;4977162;28;20303;-81
2021/09/07 05:33:54;;;;;;;46.17;33.17;;;;;;;12.98;87.30;102551.94;4993114;28;20219;-79
2021/09/07 05:36:19;;;;;;;51.23;34.07;;;;;;;13.00;87.18;102560.59;4992809;28;20192;-80
2021/09/07 05:38:45;;;;;;;47.37;32.43;;;;;;;13.05;86.16;102560.75;4976790;28;20195;-81
2021/09/07 05:41:11;;;;;;;54.17;32.83;;;;;;;13.05;86.24;102564.22;4993011;28;20250;-80
2021/09/07 05:43:36;;;;;;;38.60;29.17;;;;;;;13.08;85.33;102561.75;4993685;28;20195;-81
2021/09/07 05:46:01;;;;;;;39.70;30.63;;;;;;;13.04;85.95;102566.72;4993761;28;20199;-80
2021/09/07 05:48:27;;;;;;;39.10;30.20;;;;;;;12.99;86.16;102566.59;4993210;28;20310;-82
2021/09/07 05:50:52;;;;;;;32.37;28.97;;;;;;;13.05;85.41;102566.78;4995282;28;20232;-78
2021/09/07 05:53:18;;;;;;;40.20;28.70;;;;;;;13.12;84.78;102561.03;4976553;28;20208;-80
2021/09/07 05:55:43;;;;;;;32.07;27.77;;;;;;;13.18;84.50;102553.56;4976727;28;20195;-80
2021/09/07 05:58:08;;;;;;;30.00;26.90;;;;;;;13.16;84.84;102559.47;4993322;28;20630;-79
2021/09/07 06:00:34;;;;;;;31.10;27.70;;;;;;;13.19;84.73;102560.47;4992828;28;20216;-79
2021/09/07 06:03:04;;;;;;;30.30;27.03;;;;;;;13.22;84.36;102562.25;4991137;28;20184;-79
2021/09/07 06:05:30;;;;;;;31.17;25.53;;;;;;;13.23;84.67;102558.88;4975343;28;20219;-76
2021/09/07 06:07:55;;;;;;;32.90;29.13;;;;;;;13.30;84.03;102566.00;4992580;28;20247;-80
2021/09/07 06:10:21;;;;;;;30.17;26.83;;;;;;;13.35;84.10;102562.75;4991715;28;20303;-81
2021/09/07 06:12:46;;;;;;;28.37;25.37;;;;;;;13.37;84.09;102560.22;4991386;28;20295;-79
2021/09/07 06:15:13;;;;;;;31.13;26.73;;;;;;;13.34;83.95;102561.00;4992510;28;20211;-80
2021/09/07 06:17:38;;;;;;;30.90;26.67;;;;;;;13.27;84.78;102555.59;4990939;28;20308;-79
2021/09/07 06:20:05;;;;;;;33.80;27.03;;;;;;;13.46;84.00;102564.03;4990758;28;20211;-80
2021/09/07 06:22:30;;;;;;;36.50;27.00;;;;;;;13.51;84.15;102559.03;4992839;28;20234;-79
2021/09/07 06:24:55;;;;;;;31.93;27.33;;;;;;;13.73;83.52;102561.53;4991032;28;20727;-80
2021/09/07 06:27:21;;;;;;;36.23;27.17;;;;;;;13.63;84.12;102567.19;4991901;28;20755;-80
2021/09/07 06:29:46;;;;;;;101.63;31.40;;;;;;;13.55;85.04;102566.91;4991302;28;20254;-80
2021/09/07 06:32:13;;;;;;;63.90;30.43;;;;;;;13.64;85.22;102572.38;4983954;28;20212;-80
2021/09/07 06:34:39;;;;;;;45.57;29.07;;;;;;;13.72;85.07;102572.66;4980327;28;20204;-79
2021/09/07 06:37:05;;;;;;;34.17;27.13;;;;;;;13.86;84.91;102569.69;4957510;28;20188;-79
2021/09/07 06:39:30;;;;;;;45.83;30.13;;;;;;;13.87;84.79;102573.16;4986768;28;20250;-81
2021/09/07 06:41:55;;;;;;;40.00;32.23;;;;;;;13.96;85.06;102578.63;4967890;28;20208;-78
2021/09/07 06:44:21;;;;;;;34.43;30.67;;;;;;;14.15;84.45;102574.13;4978749;28;20757;-80
2021/09/07 06:46:46;;;;;;;32.90;29.40;;;;;;;14.45;83.25;102572.56;4996065;28;20691;-80
2021/09/07 06:49:11;;;;;;;33.53;29.90;;;;;;;14.81;82.07;102568.53;4980511;28;20673;-80
2021/09/07 06:51:37;;;;;;;29.63;25.73;;;;;;;15.08;80.74;102564.19;4996802;28;20238;-79
2021/09/07 06:54:02;;;;;;;27.73;24.87;;;;;;;15.32;79.96;102572.59;5002003;28;20188;-77
2021/09/07 06:56:28;;;;;;;29.03;25.10;;;;;;;15.49;80.37;102568.81;4992603;28;20195;-79
2021/09/07 06:58:53;;;;;;;27.83;24.40;;;;;;;15.59;79.34;102570.81;4993304;28;20657;-79
2021/09/07 07:01:19;;;;;;;27.27;24.40;;;;;;;15.95;79.32;102576.94;4991211;28;20557;-79
2021/09/07 07:03:44;;;;;;;26.53;22.93;;;;;;;16.01;78.91;102571.03;4972082;28;20665;-80
2021/09/07 07:06:09;;;;;;;26.10;22.80;;;;;;;15.98;78.55;102574.41;4974897;28;20193;-80
2021/09/07 07:08:35;;;;;;;25.80;23.30;;;;;;;16.06;78.72;102572.91;4987963;28;20216;-79
2021/09/07 07:11:00;;;;;;;28.20;21.50;;;;;;;16.18;78.08;102567.16;4995388;28;20216;-79
2021/09/07 07:13:25;;;;;;;24.13;21.53;;;;;;;16.22;78.11;102574.16;4995007;28;20191;-80
2021/09/07 07:15:50;;;;;;;25.87;23.07;;;;;;;16.15;78.10;102580.88;4989048;28;20181;-80
2021/09/07 07:18:16;;;;;;;25.40;22.70;;;;;;;16.07;78.75;102582.41;4996702;28;20184;-79
2021/09/07 07:20:42;;;;;;;27.03;23.50;;;;;;;15.98;79.12;102581.31;4978773;28;20235;-79
2021/09/07 07:23:07;;;;;;;26.23;23.37;;;;;;;16.03;78.94;102590.91;4976982;28;20192;-80
2021/09/07 07:25:33;;;;;;;27.37;24.47;;;;;;;16.23;78.58;102583.66;4983750;28;20328;-79
2021/09/07 07:27:58;;;;;;;27.73;23.90;;;;;;;16.61;76.98;102576.00;4975650;28;20216;-80
2021/09/07 07:30:25;;;;;;;25.53;22.50;;;;;;;17.09;76.32;102583.97;4984578;28;20214;-80
2021/09/07 07:32:51;;;;;;;26.23;22.07;;;;;;;17.41;74.19;102582.94;4996168;28;20196;-80
2021/09/07 07:35:16;;;;;;;25.03;21.10;;;;;;;17.52;74.48;102579.69;4990774;28;20199;-81
2021/09/07 07:37:42;;;;;;;24.53;19.90;;;;;;;17.58;73.71;102587.56;4976233;28;20214;-81
2021/09/07 07:40:07;;;;;;;22.33;19.23;;;;;;;17.80;72.50;102583.66;4974304;28;20236;-79
2021/09/07 07:42:33;;;;;;;21.53;18.70;;;;;;;18.22;71.20;102580.06;4974979;28;20247;-80
2021/09/07 07:44:58;;;;;;;21.77;18.33;;;;;;;18.60;69.67;102580.72;4976561;28;20547;-80
2021/09/07 07:47:24;;;;;;;21.40;17.50;;;;;;;18.76;68.83;102578.34;4975801;28;20227;-80
2021/09/07 07:49:49;;;;;;;21.87;17.90;;;;;;;18.88;68.61;102583.69;4994068;28;20192;-79
2021/09/07 07:52:15;;;;;;;19.73;17.47;;;;;;;18.91;69.18;102582.84;4966897;28;20200;-79
2021/09/07 07:54:40;;;;;;;19.57;17.33;;;;;;;18.79;68.87;102580.97;4959353;28;20192;-77
2021/09/07 07:57:06;;;;;;;22.00;17.37;;;;;;;18.99;68.18;102576.94;4991237;28;20188;-80
2021/09/07 07:59:32;;;;;;;21.27;17.23;;;;;;;19.14;69.16;102573.63;4994040;28;20200;-80
2021/09/07 08:01:57;;;;;;;18.67;14.43;;;;;;;19.38;68.73;102571.34;4993711;28;20709;-80
2021/09/07 08:04:22;;;;;;;21.30;15.93;;;;;;;19.20;67.67;102578.94;4989584;28;20185;-80
2021/09/07 08:06:48;;;;;;;19.53;15.43;;;;;;;19.49;67.24;102583.59;4993318;28;20220;-79
2021/09/07 08:09:13;;;;;;;18.67;15.67;;;;;;;19.57;66.55;102581.13;4993388;28;20254;-81
2021/09/07 08:11:39;;;;;;;16.77;14.67;;;;;;;19.63;66.39;102575.97;4991878;28;20214;-80
2021/09/07 08:14:06;;;;;;;17.17;14.70;;;;;;;19.97;66.15;102570.22;4983935;28;20565;-80
2021/09/07 08:16:31;;;;;;;16.67;14.10;;;;;;;20.32;65.37;102582.69;4974252;28;20181;-79
2021/09/07 08:18:56;;;;;;;19.27;15.20;;;;;;;20.31;64.74;102580.09;4989554;28;20203;-80
2021/09/07 08:21:23;;;;;;;17.37;13.50;;;;;;;20.29;64.98;102585.28;4995252;28;20220;-81
2021/09/07 08:23:48;;;;;;;16.77;12.87;;;;;;;20.63;63.71;102579.44;4993600;28;20235;-82
2021/09/07 08:26:13;;;;;;;13.43;11.90;;;;;;;21.01;62.05;102590.97;4993737;28;20187;-80
2021/09/07 08:28:39;;;;;;;18.43;13.23;;;;;;;20.73;61.70;102596.00;4994339;28;20290;-80
2021/09/07 08:31:04;;;;;;;17.90;13.03;;;;;;;20.97;61.99;102591.84;4977901;28;20223;-80
2021/09/07 08:33:29;;;;;;;15.00;12.77;;;;;;;21.36;60.65;102591.09;4975630;28;20261;-80
2021/09/07 08:35:55;;;;;;;15.33;13.67;;;;;;;21.17;61.34;102597.13;4960463;28;20279;-80
2021/09/07 08:38:20;;;;;;;15.53;13.37;;;;;;;20.89;62.35;102590.00;4972311;28;20188;-81
2021/09/07 08:40:48;;;;;;;15.87;13.60;;;;;;;21.12;62.21;102589.28;4970820;28;20266;-80
2021/09/07 08:43:13;;;;;;;17.70;13.97;;;;;;;21.25;61.12;102588.50;4992521;28;20222;-79
2021/09/07 08:45:39;;;;;;;15.77;13.60;;;;;;;21.49;59.92;102595.50;4983536;28;20238;-81
2021/09/07 08:48:05;;;;;;;17.60;13.20;;;;;;;21.59;59.24;102592.91;4993077;28;20224;-82
2021/09/07 08:50:30;;;;;;;18.33;13.50;;;;;;;21.61;59.60;102590.31;4988724;28;20238;-80
2021/09/07 08:52:58;;;;;;;19.17;12.97;;;;;;;21.61;59.09;102592.94;4992234;28;20231;-80
2021/09/07 08:55:25;;;;;;;14.53;11.80;;;;;;;21.91;57.46;102591.28;4991292;28;20415;-80
2021/09/07 08:57:51;;;;;;;13.90;11.40;;;;;;;22.00;58.77;102585.19;4960430;28;20276;-79
2021/09/07 09:00:25;;;;;;;15.50;11.87;;;;;;;22.15;57.57;102591.28;4973651;28;20290;-80
2021/09/07 09:02:51;;;;;;;16.00;13.57;;;;;;;21.75;58.42;102599.94;4973074;28;20176;-80
2021/09/07 09:05:25;;;;;;;15.73;13.53;;;;;;;21.93;57.59;102591.28;4973710;28;20196;-80
2021/09/07 09:07:50;;;;;;;14.37;12.87;;;;;;;21.97;57.90;102601.72;4962027;28;20257;-80
2021/09/07 09:10:20;;;;;;;13.77;12.17;;;;;;;22.15;57.15;102595.63;4967219;28;20299;-80
2021/09/07 09:12:46;;;;;;;15.80;13.07;;;;;;;21.73;58.32;102599.06;4988915;28;20283;-80
2021/09/07 09:15:20;;;;;;;16.30;12.33;;;;;;;22.26;57.15;102592.13;4991249;28;20261;-80
2021/09/07 09:17:46;;;;;;;16.77;12.97;;;;;;;22.33;56.99;102598.22;4978922;28;20270;-81
2021/09/07 09:20:17;;;;;;;16.00;12.90;;;;;;;22.50;57.33;102590.41;4980290;28;20216;-80
2021/09/07 09:22:57;;;;;;;13.17;11.70;;;;;;;22.98;54.83;102588.53;4984144;28;20278;-78
2021/09/07 09:25:28;;;;;;;15.97;12.33;;;;;;;24.44;51.30;102580.66;4959299;28;20313;-79
2021/09/07 09:27:56;;;;;;;13.05;11.13;;;;;;;28.58;41.27;102573.09;4976897;28;20408;-80
2021/09/07 09:30:49;;;;;;;13.27;10.70;;;;;;;29.43;39.29;102577.63;4992762;28;20242;-80
2021/09/07 09:33:19;;;;;;;14.02;10.20;;;;;;;30.57;36.90;102559.72;4992095;28;20187;-80
2021/09/07 09:36:02;;;;;;;12.32;8.95;;;;;;;31.38;35.16;102553.16;4990771;28;20192;-80
2021/09/07 09:38:34;;;;;;;10.50;9.40;;;;;;;31.39;35.26;102554.91;4991580;28;20176;-79
2021/09/07 09:41:02;;;;;;;11.10;9.98;;;;;;;33.14;32.47;102549.88;4978267;28;20209;-79
2021/09/07 09:43:46;;;;;;;11.98;9.55;;;;;;;33.20;32.20;102551.38;4954754;28;20246;-78
2021/09/07 09:46:26;;;;;;;11.88;9.27;;;;;;;33.00;32.14;102546.13;4970581;28;20200;-79
2021/09/07 09:49:12;;;;;;;10.40;8.40;;;;;;;32.99;31.95;102539.97;4970658;28;20673;-79
2021/09/07 09:51:39;;;;;;;10.73;8.07;;;;;;;32.19;32.33;102536.53;4987087;28;20235;-79
2021/09/07 09:54:05;;;;;;;11.10;9.70;;;;;;;30.32;35.60;102540.34;4991156;28;20230;-80
2021/09/07 09:56:30;;;;;;;9.68;8.02;;;;;;;29.27;36.47;102542.06;4990838;28;20215;-79
2021/09/07 09:58:56;;;;;;;8.32;6.60;;;;;;;27.66;38.98;102537.66;4991349;28;20707;-79
2021/09/07 10:01:21;;;;;;;10.15;8.02;;;;;;;26.99;41.62;102544.44;4989433;28;20211;-78
2021/09/07 10:03:48;;;;;;;6.60;5.28;;;;;;;27.39;39.46;102538.28;4991854;28;20255;-79
2021/09/07 10:06:18;;;;;;;8.13;5.05;;;;;;;27.51;38.85;102542.41;4989548;28;20188;-78
2021/09/07 10:08:43;;;;;;;7.13;5.30;;;;;;;27.55;38.86;102542.31;4990207;28;20216;-79
2021/09/07 10:11:14;;;;;;;8.82;5.55;;;;;;;27.54;40.80;102543.19;4989672;28;20621;-79
2021/09/07 10:13:43;;;;;;;6.93;5.30;;;;;;;27.50;40.18;102541.53;4991296;28;20676;-80
2021/09/07 10:16:15;;;;;;;6.90;5.97;;;;;;;27.06;39.69;102533.75;4990790;28;20184;-79
2021/09/07 10:18:52;;;;;;;7.88;5.57;;;;;;;27.15;40.84;102537.94;4970438;28;20653;-79
2021/09/07 10:26:37;;;;;;;6.78;5.78;;;;;;;27.07;43.70;102539.88;4971647;28;20740;-80
2021/09/07 10:29:06;;;;;;;8.73;6.30;;;;;;;27.13;41.08;102540.59;4954007;28;20225;-80
2021/09/07 10:31:49;;;;;;;7.03;5.82;;;;;;;27.23;40.03;102539.56;4970580;28;20209;-79
2021/09/07 10:34:16;;;;;;;7.88;5.95;;;;;;;27.09;42.40;102545.97;4970058;28;20184;-80
2021/09/07 10:37:05;;;;;;;6.10;5.50;;;;;;;27.38;40.64;102533.94;4971591;28;20253;-79
2021/09/07 10:39:32;;;;;;;9.63;6.85;;;;;;;27.20;42.02;102536.97;4971406;28;20181;-78
2021/09/07 10:41:59;;;;;;;8.68;6.55;;;;;;;27.17;40.76;102528.25;4970815;28;20303;-79
2021/09/07 10:44:31;;;;;;;6.70;6.00;;;;;;;27.42;39.93;102530.34;4976883;28;20192;-79
2021/09/07 10:46:57;;;;;;;7.45;5.88;;;;;;;27.47;40.31;102525.84;4958803;28;20232;-80
2021/09/07 10:49:27;;;;;;;8.57;6.25;;;;;;;27.38;39.68;102525.16;4987633;28;20253;-79
2021/09/07 10:52:19;;;;;;;7.07;6.22;;;;;;;27.37;39.81;102524.31;4967656;28;20213;-80
2021/09/07 10:54:47;;;;;;;7.53;6.75;;;;;;;27.31;40.35;102521.81;4988790;28;20216;-79
2021/09/07 10:57:31;;;;;;;8.57;5.90;;;;;;;27.74;40.21;102530.44;4989186;28;20188;-80
2021/09/07 10:59:58;;;;;;;9.80;6.72;;;;;;;27.77;39.57;102522.44;4990292;28;20216;-80
2021/09/07 11:02:29;;;;;;;8.13;7.32;;;;;;;27.26;39.35;102517.56;4990308;28;20175;-79
2021/09/07 11:04:54;;;;;;;9.50;6.95;;;;;;;27.57;40.12;102519.44;4989929;28;20204;-79
2021/09/07 11:07:36;;;;;;;8.73;6.60;;;;;;;27.16;38.84;102523.88;4989252;28;20284;-78
2021/09/07 11:10:03;;;;;;;8.43;6.68;;;;;;;27.43;40.11;102518.91;4989846;28;20235;-79
2021/09/07 11:12:33;;;;;;;9.32;7.60;;;;;;;27.83;39.76;102513.56;4989422;28;20200;-80
2021/09/07 11:15:08;;;;;;;7.93;7.13;;;;;;;28.10;37.84;102518.13;4973813;28;20279;-79